Flight Track Log - Related Links

Times and Time Zones

All times are in EDT time to prevent confusion due to time zone crossing. See the ASQ4976 flight status page for this flight to view local times or setup timezone preferences in your user account.

Time Position Orientation Groundspeed Altitude Reporting Facility
EDT Latitude Longitude Course Direction KTS MPH feet Rate Location/Type
Fri 09:53:40 AM 33.6500 -84.3833 73° East 149 171 2,700  Level Atlanta TRACON
Fri 09:54:34 AM 33.6667 -84.3167 73° East 213 245 4,500 2,167 Climbing Atlanta TRACON
Fri 09:55:28 AM 33.6667 -84.2500 90° East 246 283 6,600 2,700 Climbing Atlanta TRACON
Fri 09:56:34 AM 33.7167 -84.1833 48° Northeast 293 337 9,900 1,619 Climbing Atlanta TRACON
Fri 09:57:34 AM 33.8167 -84.1833 360° North 355 409 10,000 1,508 Climbing Atlanta TRACON
Fri 09:59:49 AM 34.0153 -84.2769 339° North 375 432 14,800 2,062 Climbing Atlanta Center
Fri 10:00:49 AM 34.1322 -84.2797 359° North 374 430 16,700 1,600 Climbing Atlanta Center
Fri 10:01:49 AM 34.2406 -84.2825 359° North 385 443 18,000 1,450 Climbing Atlanta Center
Fri 10:02:49 AM 34.3514 -84.2678 North 385 443 19,600 1,350 Climbing Atlanta Center
Fri 10:03:49 AM 34.4661 -84.2428 10° North 400 460 20,700 1,050 Climbing Atlanta Center
Fri 10:04:49 AM 34.5831 -84.2128 12° North 420 483 21,700 950 Climbing Atlanta Center
Fri 10:05:49 AM 34.7000 -84.1853 11° North 431 496 22,600 1,050 Climbing Atlanta Center
Fri 10:06:49 AM 34.8231 -84.1578 10° North 431 496 23,800 1,250 Climbing Atlanta Center
Fri 10:07:49 AM 34.9442 -84.1275 12° North 436 502 25,100 1,200 Climbing Atlanta Center
Fri 10:08:49 AM 35.0714 -84.0997 10° North 447 514 26,200 1,100 Climbing Atlanta Center
Fri 10:09:49 AM 35.2008 -84.0667 12° North 458 527 27,300 1,300 Climbing Atlanta Center
Fri 10:10:49 AM 35.3322 -84.0361 11° North 469 540 28,800 1,450 Climbing Atlanta Center
Fri 10:11:49 AM 35.4553 -83.9903 17° North 463 533 30,200 1,150 Climbing Atlanta Center
Fri 10:12:49 AM 35.5658 -83.9111 30° Northeast 463 533 31,100 1,100 Climbing Atlanta Center
Fri 10:13:49 AM 35.6806 -83.8267 31° Northeast 463 533 32,400 1,200 Climbing Atlanta Center
Fri 10:14:49 AM 35.7931 -83.7444 31° Northeast 470 541 33,500 1,200 Climbing Atlanta Center
Fri 10:15:49 AM 35.9056 -83.6594 31° Northeast 470 541 34,800 1,250 Climbing Atlanta Center
Fri 10:16:49 AM 36.0136 -83.5792 31° Northeast 465 535 36,000 710 Climbing Atlanta Center
Fri 10:18:55 AM 36.2297 -83.4164 31° Northeast 453 521 37,000 319 Climbing Indianapolis Center
Fri 10:19:57 AM 36.3603 -83.3161 32° Northeast 469 540 37,000  Level Indianapolis Center
Fri 10:20:59 AM 36.4758 -83.2292 31° Northeast 482 555 37,000  Level Indianapolis Center
Fri 10:22:01 AM 36.5922 -83.1425 31° Northeast 485 558 37,000  Level Indianapolis Center
Fri 10:23:03 AM 36.7089 -83.0531 32° Northeast 490 564 37,000  Level Indianapolis Center
Fri 10:24:05 AM 36.8261 -82.9639 31° Northeast 493 567 37,000  Level Indianapolis Center
Fri 10:25:07 AM 36.9475 -82.8719 31° Northeast 497 572 37,000  Level Indianapolis Center
Fri 10:26:09 AM 37.0717 -82.7756 32° Northeast 489 563 37,000  Level Indianapolis Center
Fri 10:27:12 AM 37.1897 -82.6853 31° Northeast 491 565 37,000  Level Indianapolis Center
Fri 10:28:14 AM 37.3058 -82.5958 31° Northeast 489 563 37,000  Level Indianapolis Center
Fri 10:29:16 AM 37.4397 -82.4914 32° Northeast 484 557 37,000  Level Indianapolis Center
Fri 10:30:18 AM 37.5561 -82.4017 31° Northeast 487 560 37,000  Level Indianapolis Center
Fri 10:31:20 AM 37.6719 -82.3092 32° Northeast 490 564 37,000  Level Indianapolis Center
Fri 10:32:22 AM 37.7861 -82.2200 32° Northeast 485 558 37,000  Level Indianapolis Center
Fri 10:33:24 AM 37.9003 -82.1292 32° Northeast 485 558 37,000  Level Indianapolis Center
Fri 10:34:26 AM 38.0147 -82.0394 32° Northeast 484 557 37,000  Level Indianapolis Center
Fri 10:35:28 AM 38.1511 -81.9308 32° Northeast 483 556 37,000  Level Indianapolis Center
Fri 10:36:30 AM 38.2642 -81.8397 32° Northeast 481 554 37,000  Level Indianapolis Center
Fri 10:37:32 AM 38.3725 -81.7386 36° Northeast 484 557 37,000  Level Indianapolis Center
Fri 10:38:33 AM 38.4614 -81.6103 48° Northeast 486 559 37,000  Level Indianapolis Center
Fri 10:39:35 AM 38.5503 -81.4817 49° Northeast 490 564 37,000  Level Indianapolis Center
Fri 10:40:37 AM 38.6569 -81.3306 48° Northeast 491 565 37,000  Level Indianapolis Center
Fri 10:41:39 AM 38.7456 -81.2036 48° Northeast 486 559 37,000  Level Indianapolis Center
Fri 10:42:41 AM 38.8353 -81.0736 48° Northeast 489 563 37,000  Level Indianapolis Center
Fri 10:43:43 AM 38.9258 -80.9431 48° Northeast 491 565 37,000  Level Indianapolis Center
Fri 10:44:45 AM 39.0153 -80.8125 49° Northeast 490 564 37,000  Level Indianapolis Center
Fri 10:45:47 AM 39.1069 -80.6842 47° Northeast 487 560 37,000  Level Indianapolis Center
Fri 10:46:49 AM 39.2169 -80.5308 47° Northeast 486 559 37,000  Level Indianapolis Center
Fri 10:47:50 AM 39.3075 -80.4036 47° Northeast 484 557 37,000  Level Indianapolis Center
Fri 10:48:52 AM 39.3981 -80.2758 47° Northeast 482 555 37,000  Level Indianapolis Center
Fri 10:49:24 AM 39.4453 -80.2122 46° Northeast 481 554 37,000  Level Cleveland Center
Fri 10:50:24 AM 39.5367 -80.0878 46° Northeast 481 554 37,000  Level Cleveland Center
Fri 10:51:24 AM 39.6236 -79.9578 49° Northeast 476 548 37,000  Level Cleveland Center
Fri 10:52:24 AM 39.7125 -79.8275 48° Northeast 476 548 37,000  Level Cleveland Center
Fri 10:53:24 AM 39.7989 -79.6942 50° Northeast 476 548 37,000  Level Cleveland Center
Fri 10:54:24 AM 39.8897 -79.5658 47° Northeast 476 548 37,000  Level Cleveland Center
Fri 10:55:24 AM 39.9781 -79.4317 49° Northeast 476 548 37,000  Level Cleveland Center
Fri 10:56:24 AM 40.0722 -79.2864 50° Northeast 476 548 37,000  Level Cleveland Center
Fri 10:57:24 AM 40.1583 -79.1542 50° Northeast 476 548 37,000  Level Cleveland Center
Fri 10:58:24 AM 40.2461 -79.0244 48° Northeast 476 548 37,000  Level Cleveland Center
Fri 10:59:24 AM 40.3339 -78.8917 49° Northeast 476 548 37,000  Level Cleveland Center
Fri 11:00:24 AM 40.4217 -78.7586 49° Northeast 476 548 37,000  Level Cleveland Center
Fri 11:01:24 AM 40.5089 -78.6250 49° Northeast 471 542 37,000  Level Cleveland Center
Fri 11:02:24 AM 40.5942 -78.4939 49° Northeast 471 542 37,000  Level Cleveland Center
Fri 11:04:35 AM 40.7800 -78.2042 50° Northeast 492 566 37,000  Level New York Center
Fri 11:05:33 AM 40.8658 -78.0678 50° Northeast 492 566 37,000  Level New York Center
Fri 11:06:34 AM 40.9528 -77.9397 48° Northeast 481 554 37,000  Level New York Center
Fri 11:07:35 AM 41.0328 -77.8217 48° Northeast 481 554 37,000  Level New York Center
Fri 11:08:35 AM 41.1194 -77.6956 48° Northeast 476 548 37,000 -203 Level New York Center
Fri 11:09:33 AM 41.2025 -77.5550 52° Northeast 476 548 36,600 -700 Descending New York Center
Fri 11:10:35 AM 41.2733 -77.4075 57° Northeast 476 548 35,600 -1,100 Descending New York Center
Fri 11:11:33 AM 41.3492 -77.2436 58° Northeast 471 542 34,400 -1,373 Descending New York Center
Fri 11:12:33 AM 41.4233 -77.1014 55° Northeast 471 542 32,900 -1,450 Descending New York Center
Fri 11:13:33 AM 41.5153 -76.9797 45° Northeast 471 542 31,500 -1,438 Descending New York Center
Fri 11:14:34 AM 41.6044 -76.8686 43° Northeast 471 542 30,000 -1,500 Descending New York Center
Fri 11:15:33 AM 41.6983 -76.7411 45° Northeast 476 548 28,500 -1,513 Descending New York Center
Fri 11:16:33 AM 41.7894 -76.6267 43° Northeast 460 529 27,000 -1,500 Descending New York Center
Fri 11:17:33 AM 41.8786 -76.5067 45° Northeast 460 529 25,500 -774 Descending New York Center
Fri 11:19:08 AM 42.0278 -76.3142 44° Northeast 521 600 25,000 -194 Descending Boston Center
Fri 11:20:08 AM 42.1172 -76.1939 45° Northeast 478 550 25,000  Level Boston Center
Fri 11:21:08 AM 42.1886 -76.0550 55° Northeast 466 536 25,000  Level Boston Center
Fri 11:22:08 AM 42.2456 -75.8986 64° Northeast 447 514 25,000  Level Boston Center
Fri 11:23:08 AM 42.2869 -75.7717 66° East 453 521 25,000 -500 Level Boston Center
Fri 11:24:08 AM 42.3506 -75.5867 65° Northeast 453 521 24,000 -1,300 Descending Boston Center
Fri 11:25:08 AM 42.4047 -75.4347 64° Northeast 453 521 22,400 -2,600 Descending Boston Center
Fri 11:26:08 AM 42.4339 -75.2703 76° East 427 491 18,800 -3,100 Descending Boston Center
Fri 11:27:08 AM 42.4397 -75.1186 87° East 410 472 16,200 -2,800 Descending Boston Center
Fri 11:28:08 AM 42.4450 -74.9781 87° East 397 457 13,200 -2,350 Descending Boston Center
Fri 11:29:08 AM 42.4522 -74.8403 86° East 377 434 11,500 -600 Descending Boston Center
Fri 11:30:08 AM 42.4614 -74.6972 85° East 377 434 12,000 -337 Climbing Boston Center
Fri 11:30:37 AM 42.4625 -74.6353 89° East 360 414 11,000 -1,100 Descending Boston Center
Fri 11:31:08 AM 42.4658 -74.5650 86° East 366 421 10,900  Descending Boston Center
Fri 11:31:43 AM 42.4694 -74.4864 86° East 368 423 11,000  Climbing Boston Center
Fri 11:32:08 AM 42.4728 -74.4247 86° East 366 421 10,900  Descending Boston Center
Fri 11:32:56 AM 42.4975 -74.3211 72° East 369 425 11,000 -385 Climbing Boston Center
Fri 11:33:57 AM 42.5614 -74.2356 45° Northeast 309 356 10,200 -1,041 Descending Boston Center
Fri 11:34:57 AM 42.6208 -74.1669 40° Northeast 264 304 8,900 -1,223 Descending Boston Center
Fri 11:35:40 AM 42.6631 -74.1200 39° Northeast 255 293 8,100 -845 Descending Boston Center
Fri 11:36:08 AM 42.6842 -74.0953 41° Northeast 256 295 7,900 -885 Descending Boston Center
Fri 11:36:41 AM 42.7097 -74.0675 39° Northeast 212 244 7,200 -1,300 Descending Boston Center
Fri 11:37:08 AM 42.7350 -74.0542 21° North 224 258 6,600 -1,279 Descending Boston Center
Fri 11:37:42 AM 42.7686 -74.0353 22° Northeast 217 250 5,900 -1,300 Descending Boston Center
Fri 11:38:08 AM 42.7917 -74.0217 23° Northeast 212 244 5,300 -806 Descending Boston Center
Fri 11:38:49 AM 42.8275 -73.9942 29° Northeast 222 255 5,000 -600 Descending Boston Center
Fri 11:39:08 AM 42.8464 -73.9833 23° Northeast 212 244 4,700 -1,222 Descending Boston Center
Fri 11:39:43 AM 42.8758 -73.9644 25° Northeast 219 252 3,900 -1,100 Descending Boston Center
Fri 11:40:08 AM 42.9011 -73.9450 29° Northeast 212 244 3,600 -885 Descending Boston Center
Fri 11:40:44 AM 42.9225 -73.9089 51° Northeast 213 245 3,000 -500 Descending Boston Center
Fri 11:41:08 AM 42.9289 -73.8892 66° East 201 231 3,100  Climbing Boston Center
Fri 11:41:45 AM 42.9397 -73.8525 68° East 164 189 3,000 -100 Descending Boston Center
Fri 11:42:08 AM 42.9256 -73.8267 127° Southeast 154 177 3,000  Level Boston Center
Fri 11:42:46 AM 42.8964 -73.8175 167° South 177 204 3,000 -200 Level Boston Center
Fri 11:43:08 AM 42.8778 -73.8142 173° South 154 177 2,800 220 Descending Boston Center
Fri 11:44:08 AM 42.8817 -73.8228 302° West 135 155 3,300 -903 Climbing Boston Center
Fri 11:44:41 AM 42.8131 -73.8100 172° South 137 158 1,400 -600 Descending Boston Center
Fri 11:45:08 AM 42.8528 -73.8053 North 64 74 2,700 -716 Climbing Boston Center
Fri 11:45:48 AM 42.7672 -73.8061 180° South 138 159 600 -3,150 Descending Boston Center

Login

Don't have an account? Register now (free) for customized features, flight alerts, and more!